createdAt,value
2018-03-24T00:02:22.221Z,39.97
2018-03-24T00:04:49.701Z,56.80
2018-03-24T00:07:17.173Z,40.03
2018-03-24T00:09:44.767Z,35.57
2018-03-24T00:12:12.227Z,29.90
2018-03-24T00:14:39.665Z,34.47
2018-03-24T00:17:07.129Z,36.20
2018-03-24T00:19:34.586Z,39.33
2018-03-24T00:22:02.338Z,32.77
2018-03-24T00:24:29.781Z,35.00
2018-03-24T00:26:57.229Z,29.83
2018-03-24T00:29:24.697Z,33.50
2018-03-24T00:31:52.164Z,35.17
2018-03-24T00:34:19.889Z,36.67
2018-03-24T00:36:47.329Z,33.40
2018-03-24T00:39:14.773Z,37.23
2018-03-24T00:41:42.253Z,38.40
2018-03-24T00:44:09.701Z,35.20
2018-03-24T00:46:37.313Z,35.83
2018-03-24T00:49:04.757Z,34.37
2018-03-24T00:51:32.214Z,35.70
2018-03-24T00:53:59.685Z,37.73
2018-03-24T00:56:27.136Z,27.93
2018-03-24T00:58:54.909Z,34.33
2018-03-24T01:01:22.362Z,33.13
2018-03-24T01:03:49.805Z,36.33
2018-03-24T01:06:17.282Z,27.37
2018-03-24T01:08:44.733Z,27.37
2018-03-24T01:11:12.414Z,22.73
2018-03-24T01:13:39.857Z,28.23
2018-03-24T01:16:07.301Z,22.43
2018-03-24T01:18:34.765Z,23.20
2018-03-24T01:21:02.221Z,24.30
2018-03-24T01:23:29.873Z,20.17
2018-03-24T01:25:57.329Z,24.50
2018-03-24T01:28:24.886Z,20.33
2018-03-24T01:30:52.345Z,16.63
2018-03-24T01:33:19.797Z,22.40
2018-03-24T01:35:47.574Z,20.33
2018-03-24T01:38:15.041Z,23.23
2018-03-24T01:40:42.510Z,23.03
2018-03-24T01:43:09.973Z,24.00
2018-03-24T01:45:37.417Z,19.60
2018-03-24T01:48:04.901Z,15.60
2018-03-24T01:50:32.341Z,18.97
2018-03-24T01:52:59.789Z,17.47
2018-03-24T01:55:27.269Z,19.90
2018-03-24T01:57:54.709Z,28.60
2018-03-24T02:00:22.325Z,15.00
2018-03-24T02:02:49.769Z,18.03
2018-03-24T02:05:17.223Z,18.93
2018-03-24T02:07:44.704Z,19.00
2018-03-24T02:10:12.173Z,23.47
2018-03-24T02:12:39.673Z,26.50
2018-03-24T02:15:07.126Z,20.23
2018-03-24T02:17:34.589Z,22.37
2018-03-24T02:20:02.063Z,15.20
2018-03-24T02:22:29.535Z,27.47
2018-03-24T02:24:57.021Z,23.17
2018-03-24T02:27:24.473Z,19.10
2018-03-24T02:29:51.926Z,21.63
2018-03-24T02:32:19.578Z,20.90
2018-03-24T02:34:47.042Z,25.10
2018-03-24T02:37:14.674Z,22.70
2018-03-24T02:39:42.169Z,27.93
2018-03-24T02:42:09.784Z,27.73
2018-03-24T02:44:37.266Z,44.90
2018-03-24T02:47:04.708Z,56.97
2018-03-24T02:49:32.181Z,45.50
2018-03-24T02:51:59.626Z,41.43
2018-03-24T02:54:27.069Z,53.30
2018-03-24T02:56:54.545Z,42.40
2018-03-24T02:59:21.985Z,48.63
2018-03-24T03:01:49.781Z,50.57
2018-03-24T03:04:17.257Z,51.00
2018-03-24T03:06:44.706Z,50.63
2018-03-24T03:09:12.190Z,40.60
2018-03-24T03:11:39.637Z,49.27
2018-03-24T03:14:07.330Z,44.50
2018-03-24T03:16:34.770Z,42.77
2018-03-24T03:19:02.225Z,46.80
2018-03-24T03:24:31.717Z,40.37
2018-03-24T03:26:59.390Z,44.43
2018-03-24T03:29:26.829Z,36.23
2018-03-24T03:31:55.249Z,36.77
2018-03-24T03:34:22.721Z,40.40
2018-03-24T03:36:50.190Z,34.40
2018-03-24T03:39:17.766Z,36.53
2018-03-24T03:41:45.210Z,34.23
2018-03-24T03:44:12.657Z,34.80
2018-03-24T03:46:40.129Z,37.40
2018-03-24T03:49:07.596Z,45.97
2018-03-24T03:51:35.217Z,32.57
2018-03-24T03:54:02.669Z,32.97
2018-03-24T03:56:30.134Z,34.13
2018-03-24T03:58:57.593Z,28.17
2018-03-24T04:01:25.048Z,26.23
2018-03-24T04:03:52.581Z,28.43
2018-03-24T04:06:20.041Z,28.67
2018-03-24T04:08:47.494Z,33.50
2018-03-24T04:11:14.964Z,26.57
2018-03-24T04:13:42.409Z,48.60
2018-03-24T04:16:10.114Z,292.93
2018-03-24T04:18:37.594Z,276.63
2018-03-24T04:21:05.049Z,251.23
2018-03-24T04:23:32.557Z,106.40
2018-03-24T04:26:00.006Z,86.30
2018-03-24T04:28:27.478Z,49.43
2018-03-24T04:30:54.935Z,66.83
2018-03-24T04:33:22.397Z,62.97
2018-03-24T04:35:49.868Z,83.23
2018-03-24T04:38:17.310Z,76.73
2018-03-24T04:40:44.805Z,61.07
2018-03-24T04:43:12.265Z,46.80
2018-03-24T04:45:39.715Z,47.77
2018-03-24T04:48:07.177Z,46.73
2018-03-24T04:50:34.650Z,59.47
2018-03-24T04:53:02.362Z,47.60
2018-03-24T04:55:29.801Z,48.40
2018-03-24T04:57:57.244Z,46.63
2018-03-24T05:00:24.705Z,39.07
2018-03-24T05:02:52.191Z,44.60
2018-03-24T05:05:19.722Z,43.60
2018-03-24T05:07:47.165Z,48.50
2018-03-24T05:10:14.609Z,49.23
2018-03-24T05:12:42.117Z,52.77
2018-03-24T05:15:09.557Z,49.77
2018-03-24T05:17:37.049Z,53.03
2018-03-24T05:20:04.513Z,62.37
2018-03-24T05:22:31.954Z,60.87
2018-03-24T05:24:59.427Z,59.53
2018-03-24T05:27:26.869Z,57.73
2018-03-24T05:29:54.581Z,56.03
2018-03-24T05:32:22.035Z,52.77
2018-03-24T05:34:49.508Z,57.70
2018-03-24T05:37:16.989Z,54.07
2018-03-24T05:39:44.442Z,52.80
2018-03-24T05:42:12.071Z,52.27
2018-03-24T05:44:39.530Z,49.30
2018-03-24T05:47:06.977Z,53.87
2018-03-24T05:49:34.442Z,57.67
2018-03-24T05:52:01.896Z,62.37
2018-03-24T05:54:29.615Z,56.90
2018-03-24T05:56:57.064Z,55.60
2018-03-24T05:59:24.505Z,53.63
2018-03-24T06:01:51.982Z,54.73
2018-03-24T06:04:19.426Z,57.97
2018-03-24T06:06:46.909Z,51.97
2018-03-24T06:09:14.357Z,57.03
2018-03-24T06:11:41.805Z,62.40
2018-03-24T06:14:09.273Z,50.10
2018-03-24T06:16:36.721Z,48.67
2018-03-24T06:19:04.194Z,52.30
2018-03-24T06:21:31.646Z,49.77
2018-03-24T06:23:59.086Z,49.80
2018-03-24T06:26:26.549Z,51.53
2018-03-24T06:28:53.993Z,55.13
2018-03-24T06:31:33.313Z,47.83
2018-03-24T06:34:00.765Z,50.10
2018-03-24T06:36:29.123Z,50.10
2018-03-24T06:38:56.593Z,64.40
2018-03-24T06:41:24.047Z,59.90
2018-03-24T06:43:51.566Z,55.60
2018-03-24T06:46:19.015Z,53.40
2018-03-24T06:48:46.461Z,48.53
2018-03-24T06:51:13.923Z,46.17
2018-03-24T06:53:41.369Z,51.70
2018-03-24T06:56:08.996Z,56.53
2018-03-24T06:58:36.457Z,45.03
2018-03-24T07:01:03.901Z,47.80
2018-03-24T07:03:31.369Z,52.73
2018-03-24T07:05:58.817Z,50.40
2018-03-24T07:08:26.672Z,43.40
2018-03-24T07:10:54.114Z,51.90
2018-03-24T07:13:21.566Z,59.37
2018-03-24T07:15:49.087Z,49.63
2018-03-24T07:18:16.499Z,53.00
2018-03-24T07:20:44.345Z,57.97
2018-03-24T07:23:11.805Z,48.97
2018-03-24T07:25:39.248Z,50.80
2018-03-24T07:28:06.713Z,47.83
2018-03-24T07:30:34.157Z,48.63
2018-03-24T07:33:01.644Z,49.63
2018-03-24T07:35:29.089Z,51.57
2018-03-24T07:37:56.537Z,49.10
2018-03-24T07:40:24.003Z,47.00
2018-03-24T07:42:51.445Z,43.53
2018-03-24T07:45:18.940Z,49.83
2018-03-24T07:47:46.396Z,44.63
2018-03-24T07:50:13.845Z,42.90
2018-03-24T07:52:41.362Z,40.70
2018-03-24T07:55:08.814Z,44.67
2018-03-24T07:57:36.489Z,46.10
2018-03-24T08:00:03.942Z,43.60
2018-03-24T08:02:31.393Z,44.67
2018-03-24T08:04:58.886Z,40.20
2018-03-24T08:07:26.333Z,48.50
2018-03-24T08:09:54.062Z,36.63
2018-03-24T08:12:21.501Z,41.07
2018-03-24T08:14:48.951Z,42.87
2018-03-24T08:17:16.421Z,41.70
2018-03-24T08:19:43.893Z,43.63
2018-03-24T08:22:11.489Z,39.10
2018-03-24T08:24:38.932Z,38.10
2018-03-24T08:27:06.387Z,38.00
2018-03-24T08:29:33.901Z,37.47
2018-03-24T08:32:01.341Z,37.67
2018-03-24T08:34:28.853Z,37.67
2018-03-24T08:36:56.305Z,35.47
2018-03-24T08:39:23.777Z,35.13
2018-03-24T08:41:51.237Z,36.97
2018-03-24T08:44:18.709Z,32.83
2018-03-24T08:46:46.181Z,30.33
2018-03-24T08:49:13.637Z,26.10
2018-03-24T08:51:41.106Z,26.23
2018-03-24T08:54:08.581Z,26.37
2018-03-24T08:56:36.026Z,30.43
2018-03-24T08:59:03.693Z,35.70
2018-03-24T09:01:31.157Z,35.70
2018-03-24T09:03:58.601Z,29.20
2018-03-24T09:06:26.061Z,26.50
2018-03-24T09:08:53.509Z,33.07
2018-03-24T09:11:20.982Z,33.53
2018-03-24T09:13:48.421Z,30.70
2018-03-24T09:16:15.893Z,30.53
2018-03-24T09:18:43.365Z,26.30
2018-03-24T09:21:10.818Z,30.20
2018-03-24T09:23:38.597Z,29.77
2018-03-24T09:26:06.087Z,21.87
2018-03-24T09:28:33.542Z,25.93
2018-03-24T09:31:01.041Z,31.13
2018-03-24T09:33:28.486Z,24.83
2018-03-24T09:35:56.092Z,25.43
2018-03-24T09:38:23.554Z,26.63
2018-03-24T09:40:51.003Z,23.33
2018-03-24T09:43:18.470Z,24.00
2018-03-24T09:45:45.921Z,26.13
2018-03-24T09:48:13.441Z,22.10
2018-03-24T09:50:40.925Z,24.37
2018-03-24T09:53:08.373Z,25.17
2018-03-24T09:55:35.850Z,24.43
2018-03-24T09:58:03.300Z,24.30
2018-03-24T10:00:30.826Z,25.30
2018-03-24T10:02:59.141Z,20.50
2018-03-24T10:05:26.593Z,14.67
2018-03-24T10:07:54.057Z,27.80
2018-03-24T10:10:21.512Z,18.13
2018-03-24T10:12:49.149Z,16.27
2018-03-24T10:15:16.873Z,15.77
2018-03-24T10:17:44.324Z,15.10
2018-03-24T10:20:11.794Z,21.30
2018-03-24T10:22:51.062Z,14.53
2018-03-24T10:25:18.529Z,11.10
2018-03-24T10:27:45.977Z,14.00
2018-03-24T10:30:13.561Z,11.67
2018-03-24T10:32:41.032Z,10.70
2018-03-24T10:35:08.483Z,15.17
2018-03-24T10:37:41.542Z,12.73
2018-03-24T10:40:08.993Z,12.40
2018-03-24T10:42:36.574Z,18.37
2018-03-24T10:45:04.045Z,14.50
2018-03-24T10:47:31.501Z,14.87
2018-03-24T10:49:58.989Z,11.73
2018-03-24T10:52:26.469Z,12.63
2018-03-24T10:54:54.060Z,13.00
2018-03-24T10:57:21.518Z,15.47
2018-03-24T10:59:48.977Z,12.83
2018-03-24T11:02:16.446Z,16.20
2018-03-24T11:04:43.909Z,14.70
2018-03-24T11:07:11.398Z,19.07
2018-03-24T11:09:38.845Z,15.27
2018-03-24T11:12:06.294Z,13.60
2018-03-24T11:14:33.769Z,17.50
2018-03-24T11:17:01.239Z,13.37
2018-03-24T11:19:28.725Z,13.30
2018-03-24T11:21:56.185Z,14.90
2018-03-24T11:24:23.665Z,12.93
2018-03-24T11:26:51.174Z,10.23
2018-03-24T11:29:18.617Z,16.60
2018-03-24T11:31:46.117Z,15.43
2018-03-24T11:34:13.573Z,12.07
2018-03-24T11:36:41.041Z,13.67
2018-03-24T11:39:08.519Z,10.80
2018-03-24T11:41:35.967Z,20.80
2018-03-24T11:44:03.449Z,10.53
2018-03-24T11:46:30.885Z,8.83
2018-03-24T11:48:58.341Z,6.87
2018-03-24T11:51:25.805Z,11.53
2018-03-24T11:53:53.258Z,11.53
2018-03-24T11:56:20.877Z,9.93
2018-03-24T11:58:48.321Z,10.37
2018-03-24T12:01:15.762Z,11.30
2018-03-24T12:03:43.231Z,10.83
2018-03-24T12:06:10.705Z,11.50
2018-03-24T12:08:38.315Z,10.63
2018-03-24T12:11:05.766Z,13.20
2018-03-24T12:13:33.213Z,12.67
2018-03-24T12:16:00.688Z,14.30
2018-03-24T12:18:28.137Z,13.47
2018-03-24T12:20:55.635Z,11.50
2018-03-24T12:23:23.081Z,12.80
2018-03-24T12:25:50.521Z,13.83
2018-03-24T12:28:17.984Z,10.00
2018-03-24T12:30:45.436Z,8.33
2018-03-24T12:33:12.917Z,9.30
2018-03-24T12:35:40.373Z,9.80
2018-03-24T12:38:07.846Z,10.47
2018-03-24T12:40:35.311Z,10.27
2018-03-24T12:43:02.760Z,12.13
2018-03-24T12:45:30.390Z,11.20
2018-03-24T12:47:57.845Z,17.53
2018-03-24T12:50:25.297Z,10.83
2018-03-24T12:52:52.922Z,9.83
2018-03-24T12:55:20.369Z,11.03
2018-03-24T12:57:47.864Z,10.23
2018-03-24T13:00:15.310Z,12.40
2018-03-24T13:02:42.754Z,8.43
2018-03-24T13:05:10.217Z,12.53
2018-03-24T13:07:37.666Z,14.63
2018-03-24T13:10:05.498Z,8.67
2018-03-24T13:12:32.941Z,11.47
2018-03-24T13:15:00.381Z,9.80
2018-03-24T13:17:27.853Z,12.90
2018-03-24T13:19:55.301Z,11.60
2018-03-24T13:22:23.049Z,14.57
2018-03-24T13:24:50.485Z,9.37
2018-03-24T13:27:17.937Z,8.27
2018-03-24T13:29:45.426Z,13.80
2018-03-24T13:32:12.897Z,9.67
2018-03-24T13:34:40.393Z,15.27
2018-03-24T13:37:07.877Z,16.37
2018-03-24T13:39:35.338Z,10.40
2018-03-24T13:42:02.813Z,13.80
2018-03-24T13:44:30.282Z,12.07
2018-03-24T13:46:57.755Z,11.87
2018-03-24T13:49:25.209Z,12.10
2018-03-24T13:51:52.654Z,10.53
2018-03-24T13:54:20.137Z,10.60
2018-03-24T13:56:47.585Z,11.70
2018-03-24T13:59:15.283Z,9.60
2018-03-24T14:01:42.757Z,11.73
2018-03-24T14:04:10.202Z,10.40
2018-03-24T14:06:37.676Z,14.33
2018-03-24T14:09:05.170Z,12.17
2018-03-24T14:11:32.857Z,11.20
2018-03-24T14:14:00.313Z,11.50
2018-03-24T14:16:27.778Z,11.70
2018-03-24T14:18:55.265Z,11.33
2018-03-24T14:21:22.709Z,9.80
2018-03-24T14:23:50.416Z,9.07
2018-03-24T14:26:17.976Z,9.83
2018-03-24T14:28:45.413Z,9.57
2018-03-24T14:31:12.889Z,13.60
2018-03-24T14:33:40.344Z,8.20
2018-03-24T14:36:07.823Z,10.20
2018-03-24T14:38:35.266Z,8.13
2018-03-24T14:41:02.711Z,7.10
2018-03-24T14:43:30.206Z,9.20
2018-03-24T14:45:57.658Z,8.40
2018-03-24T14:48:25.401Z,7.83
2018-03-24T14:50:52.852Z,9.00
2018-03-24T14:53:20.301Z,8.93
2018-03-24T14:55:47.778Z,8.70
2018-03-24T14:58:15.226Z,8.70
2018-03-24T15:00:42.866Z,9.07
2018-03-24T15:03:10.313Z,8.33
2018-03-24T15:05:37.777Z,6.70
2018-03-24T15:08:05.283Z,7.60
2018-03-24T15:10:32.727Z,8.70
2018-03-24T15:13:00.408Z,8.27
2018-03-24T15:15:27.849Z,7.43
2018-03-24T15:17:55.286Z,8.47
2018-03-24T15:20:22.785Z,7.60
2018-03-24T15:22:50.222Z,9.30
2018-03-24T15:25:17.868Z,8.30
2018-03-24T15:27:45.368Z,7.40
2018-03-24T15:30:24.958Z,9.13
2018-03-24T15:32:52.641Z,6.47
2018-03-24T15:35:46.654Z,6.80
2018-03-24T15:38:14.140Z,7.60
2018-03-24T15:40:41.782Z,8.87
2018-03-24T15:43:09.228Z,7.63
2018-03-24T15:45:36.682Z,8.73
2018-03-24T15:48:04.167Z,8.63
2018-03-24T15:50:31.610Z,8.40
2018-03-24T15:52:59.230Z,8.70
2018-03-24T15:55:26.689Z,7.73
2018-03-24T15:57:54.145Z,10.93
2018-03-24T16:00:21.602Z,9.93
2018-03-24T16:02:49.245Z,7.90
2018-03-24T16:05:16.745Z,13.00
2018-03-24T16:07:44.189Z,8.07
2018-03-24T16:10:11.647Z,8.93
2018-03-24T16:12:39.113Z,7.67
2018-03-24T16:15:06.621Z,8.83
2018-03-24T16:17:34.550Z,9.20
2018-03-24T16:20:01.994Z,9.40
2018-03-24T16:22:29.445Z,8.10
2018-03-24T16:24:56.950Z,7.80
2018-03-24T16:27:24.394Z,7.97
2018-03-24T16:29:51.887Z,8.47
2018-03-24T16:32:19.339Z,9.17
2018-03-24T16:34:46.801Z,8.23
2018-03-24T16:37:14.262Z,8.20
2018-03-24T16:39:41.709Z,9.90
2018-03-24T16:42:09.279Z,9.70
2018-03-24T16:44:36.748Z,9.43
2018-03-24T16:47:04.195Z,10.83
2018-03-24T16:49:31.669Z,17.40
2018-03-24T16:51:59.120Z,20.87
2018-03-24T16:54:26.601Z,17.20
2018-03-24T16:56:54.058Z,10.40
2018-03-24T16:59:21.502Z,9.60
2018-03-24T17:01:48.979Z,10.63
2018-03-24T17:04:16.466Z,15.90
2018-03-24T17:06:44.171Z,15.87
2018-03-24T17:09:11.641Z,12.00
2018-03-24T17:11:39.106Z,11.67
2018-03-24T17:14:06.643Z,13.57
2018-03-24T17:16:34.101Z,15.90
2018-03-24T17:19:01.538Z,9.27
2018-03-24T17:21:28.996Z,9.17
2018-03-24T17:23:56.446Z,10.50
2018-03-24T17:26:23.883Z,10.77
2018-03-24T17:28:51.354Z,9.13
2018-03-24T17:31:18.798Z,11.53
2018-03-24T17:33:46.261Z,14.60
2018-03-24T17:36:14.009Z,11.30
2018-03-24T17:38:41.498Z,15.10
2018-03-24T17:41:08.977Z,9.67
2018-03-24T17:43:36.789Z,10.60
2018-03-24T17:46:04.225Z,10.50
2018-03-24T17:48:31.720Z,9.30
2018-03-24T17:50:59.397Z,13.23
2018-03-24T17:53:26.850Z,13.10
2018-03-24T17:55:54.301Z,10.47
2018-03-24T17:58:21.907Z,10.73
2018-03-24T18:00:49.348Z,11.33
2018-03-24T18:03:16.814Z,11.17
2018-03-24T18:05:44.286Z,24.30
2018-03-24T18:08:11.761Z,11.33
2018-03-24T18:10:39.213Z,10.77
2018-03-24T18:13:06.681Z,12.93
2018-03-24T18:15:34.150Z,11.27
2018-03-24T18:18:01.605Z,9.60
2018-03-24T18:20:29.111Z,10.90
2018-03-24T18:22:56.570Z,11.30
2018-03-24T18:25:24.085Z,11.03
2018-03-24T18:27:51.530Z,13.80
2018-03-24T18:30:18.993Z,10.60
2018-03-24T18:32:46.458Z,10.97
2018-03-24T18:35:13.946Z,11.33
2018-03-24T18:37:41.561Z,17.27
2018-03-24T18:40:09.009Z,11.30
2018-03-24T18:42:36.441Z,9.07
2018-03-24T18:45:03.919Z,11.43
2018-03-24T18:47:31.383Z,11.40
2018-03-24T18:49:58.989Z,11.87
2018-03-24T18:52:26.442Z,13.47
2018-03-24T18:54:53.886Z,14.83
2018-03-24T18:57:21.479Z,11.43
2018-03-24T18:59:48.941Z,14.47
2018-03-24T19:02:16.550Z,17.50
2018-03-24T19:04:44.262Z,13.90
2018-03-24T19:07:11.750Z,11.03
2018-03-24T19:09:39.231Z,13.30
2018-03-24T19:12:06.670Z,14.57
2018-03-24T19:14:34.381Z,14.93
2018-03-24T19:17:01.822Z,12.10
2018-03-24T19:19:29.277Z,15.00
2018-03-24T19:21:56.747Z,13.93
2018-03-24T19:24:24.197Z,19.13
2018-03-24T19:26:51.834Z,15.67
2018-03-24T19:29:19.285Z,14.63
2018-03-24T19:31:46.730Z,16.37
2018-03-24T19:34:14.207Z,19.30
2018-03-24T19:36:41.658Z,12.30
2018-03-24T19:39:09.504Z,15.17
2018-03-24T19:41:36.971Z,19.83
2018-03-24T19:44:04.414Z,15.30
2018-03-24T19:46:31.899Z,12.33
2018-03-24T19:48:59.361Z,14.03
2018-03-24T19:51:26.833Z,18.30
2018-03-24T19:53:54.290Z,14.97
2018-03-24T19:56:21.786Z,19.47
2018-03-24T19:58:49.269Z,15.77
2018-03-24T20:01:16.741Z,20.70
2018-03-24T20:03:44.401Z,21.27
2018-03-24T20:06:11.861Z,17.47
2018-03-24T20:08:39.302Z,19.97
2018-03-24T20:11:06.779Z,16.17
2018-03-24T20:13:34.226Z,18.30
2018-03-24T20:16:01.925Z,15.00
2018-03-24T20:18:29.378Z,16.83
2018-03-24T20:20:56.844Z,15.60
2018-03-24T20:23:24.412Z,14.80
2018-03-24T20:25:51.888Z,22.10
2018-03-24T20:28:19.373Z,16.00
2018-03-24T20:30:46.833Z,14.40
2018-03-24T20:33:14.293Z,18.93
2018-03-24T20:35:41.787Z,16.27
2018-03-24T20:38:09.239Z,14.87
2018-03-24T20:40:36.845Z,17.20
2018-03-24T20:43:04.325Z,16.50
2018-03-24T20:45:31.783Z,18.73
2018-03-24T20:47:59.257Z,20.17
2018-03-24T20:50:26.709Z,23.10
2018-03-24T20:52:54.401Z,16.97
2018-03-24T20:55:21.849Z,12.60
2018-03-24T20:57:49.333Z,17.63
2018-03-24T21:00:16.812Z,20.30
2018-03-24T21:02:44.276Z,16.90
2018-03-24T21:05:11.762Z,19.20
2018-03-24T21:07:39.215Z,19.33
2018-03-24T21:10:06.657Z,17.23
2018-03-24T21:12:34.252Z,14.30
2018-03-24T21:15:01.694Z,16.00
2018-03-24T21:17:29.194Z,15.60
2018-03-24T21:19:56.646Z,14.87
2018-03-24T21:22:24.108Z,17.83
2018-03-24T21:24:51.602Z,12.40
2018-03-24T21:27:19.050Z,13.90
2018-03-24T21:29:46.529Z,14.60
2018-03-24T21:32:13.978Z,16.43
2018-03-24T21:34:41.462Z,16.80
2018-03-24T21:37:08.936Z,16.37
2018-03-24T21:39:36.415Z,18.27
2018-03-24T21:42:03.966Z,19.83
2018-03-24T21:44:31.445Z,14.60
2018-03-24T21:46:58.893Z,20.47
2018-03-24T21:49:26.378Z,15.20
2018-03-24T21:51:53.821Z,15.23
2018-03-24T21:54:21.317Z,18.00
2018-03-24T21:56:48.766Z,18.43
2018-03-24T21:59:16.234Z,16.37
2018-03-24T22:01:43.717Z,17.83
2018-03-24T22:04:11.166Z,21.53
2018-03-24T22:06:38.690Z,15.33
2018-03-24T22:09:06.134Z,18.43
2018-03-24T22:11:33.582Z,15.57
2018-03-24T22:14:01.053Z,17.87
2018-03-24T22:16:28.499Z,18.20
2018-03-24T22:18:56.077Z,18.90
2018-03-24T22:21:23.521Z,14.20
2018-03-24T22:23:51.003Z,20.87
2018-03-24T22:26:18.491Z,16.77
2018-03-24T22:28:45.937Z,17.43
2018-03-24T22:31:13.418Z,16.23
2018-03-24T22:33:40.892Z,13.60
2018-03-24T22:36:08.338Z,17.67
2018-03-24T22:38:35.837Z,16.83
2018-03-24T22:41:03.292Z,15.27
2018-03-24T22:43:30.758Z,14.00
2018-03-24T22:45:58.209Z,16.00
2018-03-24T22:48:25.763Z,16.00
2018-03-24T22:50:53.229Z,13.40
2018-03-24T22:53:20.705Z,19.03
2018-03-24T22:55:48.189Z,16.83
2018-03-24T22:58:15.651Z,17.20
2018-03-24T23:00:43.109Z,18.47
2018-03-24T23:03:10.569Z,12.53
2018-03-24T23:05:38.010Z,14.13
2018-03-24T23:08:05.522Z,13.90
2018-03-24T23:10:32.971Z,18.27
2018-03-24T23:13:00.423Z,16.50
2018-03-24T23:15:27.891Z,14.43
2018-03-24T23:17:55.346Z,12.40
2018-03-24T23:20:22.825Z,16.37
2018-03-24T23:22:50.284Z,12.00
2018-03-24T23:25:17.756Z,15.80
2018-03-24T23:27:45.237Z,14.10
2018-03-24T23:30:12.709Z,12.30
2018-03-24T23:32:40.193Z,15.13
2018-03-24T23:35:07.641Z,17.00
2018-03-24T23:37:35.117Z,17.20
2018-03-24T23:40:02.683Z,15.40
2018-03-24T23:42:30.081Z,13.60
2018-03-24T23:44:57.573Z,14.90
2018-03-24T23:47:25.044Z,17.67
2018-03-24T23:49:52.489Z,15.63
2018-03-24T23:52:20.161Z,14.43
2018-03-24T23:54:47.609Z,20.10
2018-03-24T23:57:15.378Z,18.90
2018-03-24T23:59:42.818Z,15.27
